createdAt,value
2022-12-22T00:00:38.544Z,99990.63
2022-12-22T00:03:30.840Z,100006.84
2022-12-22T00:06:16.497Z,100030.28
2022-12-22T00:09:05.933Z,99977.09
2022-12-22T00:11:51.449Z,99813.19
2022-12-22T00:14:37.043Z,99843.53
2022-12-22T00:17:26.517Z,99798.03
2022-12-22T00:20:18.158Z,99797.38
2022-12-22T00:23:03.775Z,99831.81
2022-12-22T00:25:51.200Z,99842.25
2022-12-22T00:28:37.639Z,99912.75
2022-12-22T00:31:23.540Z,99922.06
2022-12-22T00:34:09.104Z,99937.53
2022-12-22T00:36:55.660Z,99939.56
2022-12-22T00:39:41.387Z,99955.19
2022-12-22T00:42:28.462Z,99902.66
2022-12-22T00:45:14.003Z,99956.16
2022-12-22T00:48:00.958Z,99977.34
2022-12-22T00:50:50.941Z,99919.56
2022-12-22T00:53:39.587Z,99980.34
2022-12-22T00:56:26.902Z,99936.28
2022-12-22T00:59:18.183Z,99852.66
2022-12-22T01:02:03.658Z,99891.44
2022-12-22T01:04:49.717Z,99941.56
2022-12-22T01:07:38.229Z,99884.91
2022-12-22T01:10:25.020Z,99867.53
2022-12-22T01:13:10.422Z,99953.75
2022-12-22T01:15:58.206Z,99880.66
2022-12-22T01:18:43.601Z,99979.09
2022-12-22T01:21:29.969Z,99982.94
2022-12-22T01:24:15.800Z,99919.56
2022-12-22T01:27:01.177Z,99983.06
2022-12-22T01:29:46.575Z,99957.94
2022-12-22T01:32:34.107Z,99931.97
2022-12-22T01:35:19.376Z,99929.34
2022-12-22T01:38:04.704Z,100011.16
2022-12-22T01:40:50.740Z,99986.28
2022-12-22T01:43:38.916Z,99941.75
2022-12-22T01:46:39.505Z,99870.13
2022-12-22T01:49:30.587Z,99928.53
2022-12-22T01:52:16.587Z,99987.03
2022-12-22T01:55:03.026Z,100000.72
2022-12-22T01:57:49.995Z,100004.94
2022-12-22T02:00:35.874Z,100008.34
2022-12-22T02:03:21.804Z,100003.28
2022-12-22T02:06:20.795Z,99914.06
2022-12-22T02:09:16.542Z,99981.59
2022-12-22T02:12:09.144Z,100015.94
2022-12-22T02:15:02.499Z,99992.25
2022-12-22T02:17:53.717Z,99910.66
2022-12-22T02:20:53.983Z,99888.94
2022-12-22T02:23:54.081Z,99944.34
2022-12-22T02:26:47.908Z,99980.09
2022-12-22T02:29:37.838Z,100019.09
2022-12-22T02:32:24.753Z,100022.75
2022-12-22T02:35:10.000Z,100005.88
2022-12-22T02:38:05.755Z,99946.28
2022-12-22T02:40:59.316Z,99957.03
2022-12-22T02:44:03.146Z,99932.38
2022-12-22T02:46:52.973Z,99907.13
2022-12-22T02:49:41.965Z,99957.22
2022-12-22T02:52:32.883Z,99865.03
2022-12-22T02:55:18.760Z,99881.09
2022-12-22T02:58:04.262Z,99947.47
2022-12-22T03:00:51.349Z,99849.16
2022-12-22T03:03:40.056Z,99945.75
2022-12-22T03:06:26.014Z,99904.88
2022-12-22T03:09:11.299Z,99962.53
2022-12-22T03:12:00.227Z,99865.91
2022-12-22T03:14:45.743Z,99992.72
2022-12-22T03:17:32.713Z,99991.59
2022-12-22T03:20:18.012Z,99950.09
2022-12-22T03:23:03.600Z,99963.41
2022-12-22T03:25:48.883Z,99828.72
2022-12-22T03:28:17.058Z,99817.84
2022-12-22T03:30:45.215Z,99663.97
2022-12-22T03:33:14.743Z,99942.53
2022-12-22T03:35:45.180Z,100016.97
2022-12-22T03:38:13.153Z,100007.16
2022-12-22T03:40:41.799Z,100003.81
2022-12-22T03:43:30.319Z,100022.66
2022-12-22T03:46:16.411Z,99972.41
2022-12-22T03:49:06.903Z,99930.06
2022-12-22T03:51:35.998Z,99942.56
2022-12-22T03:54:04.532Z,100039.44
2022-12-22T03:56:33.050Z,99969.94
2022-12-22T03:59:01.408Z,100058.81
2022-12-22T04:01:29.947Z,100015.56
2022-12-22T04:03:59.574Z,100045.28
2022-12-22T04:06:27.867Z,100077.47
2022-12-22T04:08:56.192Z,100059.91
2022-12-22T04:11:42.860Z,100039.97
2022-12-22T04:14:11.733Z,100092.03
2022-12-22T04:16:40.106Z,100077.63
2022-12-22T04:19:10.531Z,100056.16
2022-12-22T04:21:39.882Z,100042.75
2022-12-22T04:24:10.612Z,100014.00
2022-12-22T04:26:39.320Z,100037.78
2022-12-22T04:29:07.901Z,100050.13
2022-12-22T04:31:37.174Z,100010.94
2022-12-22T04:34:05.587Z,100030.72
2022-12-22T04:36:35.472Z,100032.47
2022-12-22T04:39:03.853Z,100031.31
2022-12-22T04:41:32.399Z,100020.66
2022-12-22T04:44:00.839Z,100038.22
2022-12-22T04:46:29.391Z,100028.72
2022-12-22T04:49:00.254Z,99945.19
2022-12-22T04:51:28.868Z,99935.28
2022-12-22T04:53:58.804Z,99969.97
2022-12-22T04:56:27.174Z,99969.28
2022-12-22T04:58:55.239Z,99989.75
2022-12-22T05:01:23.709Z,99999.66
2022-12-22T05:03:52.067Z,99990.38
2022-12-22T05:06:21.025Z,100018.91
2022-12-22T05:08:49.111Z,100071.97
2022-12-22T05:11:19.081Z,100056.94
2022-12-22T05:13:47.558Z,100046.38
2022-12-22T05:16:18.552Z,100055.69
2022-12-22T05:18:47.561Z,100050.72
2022-12-22T05:21:17.760Z,100044.56
2022-12-22T05:23:48.941Z,99997.03
2022-12-22T05:26:19.945Z,100030.28
2022-12-22T05:28:49.067Z,100089.69
2022-12-22T05:31:20.066Z,100010.22
2022-12-22T05:33:48.728Z,100063.09
2022-12-22T05:36:17.054Z,100066.63
2022-12-22T05:38:48.254Z,100018.72
2022-12-22T05:41:16.326Z,100084.38
2022-12-22T05:43:46.107Z,100003.97
2022-12-22T05:46:14.694Z,100068.09
2022-12-22T05:48:42.836Z,100126.25
2022-12-22T05:51:12.258Z,100083.56
2022-12-22T05:53:41.058Z,100115.31
2022-12-22T05:56:10.673Z,100141.53
2022-12-22T05:58:39.873Z,100133.75
2022-12-22T06:01:09.711Z,100077.97
2022-12-22T06:03:38.240Z,100145.94
2022-12-22T06:06:07.287Z,100102.78
2022-12-22T06:08:35.624Z,100095.19
2022-12-22T06:11:03.920Z,100125.56
2022-12-22T06:13:33.240Z,100111.91
2022-12-22T06:16:01.230Z,100141.59
2022-12-22T06:18:30.794Z,100042.97
2022-12-22T06:20:58.798Z,100131.03
2022-12-22T06:23:26.818Z,100133.91
2022-12-22T06:25:56.378Z,100099.41
2022-12-22T06:28:25.056Z,100114.91
2022-12-22T06:30:53.640Z,100120.28
2022-12-22T06:33:21.769Z,100157.56
2022-12-22T06:35:57.974Z,100162.00
2022-12-22T06:38:26.601Z,100230.91
2022-12-22T06:40:55.322Z,100231.78
2022-12-22T06:43:22.277Z,100228.50
2022-12-22T06:45:50.236Z,100286.59
2022-12-22T06:48:18.608Z,100261.22
2022-12-22T06:50:46.764Z,100243.41
2022-12-22T06:53:16.509Z,100252.38
2022-12-22T06:55:44.611Z,100286.38
2022-12-22T06:58:12.704Z,100274.56
2022-12-22T07:00:40.779Z,100287.03
2022-12-22T07:03:09.043Z,100309.19
2022-12-22T07:05:37.313Z,100273.91
2022-12-22T07:08:08.928Z,100316.66
2022-12-22T07:10:56.404Z,100262.81
2022-12-22T07:13:24.840Z,100340.06
2022-12-22T07:16:00.172Z,100344.34
2022-12-22T07:18:29.865Z,100356.00
2022-12-22T07:20:58.215Z,100395.06
2022-12-22T07:23:27.017Z,100364.84
2022-12-22T07:25:56.617Z,100370.81
2022-12-22T07:28:25.206Z,100376.97
2022-12-22T07:30:54.070Z,100376.50
2022-12-22T07:33:22.554Z,100432.97
2022-12-22T07:35:50.990Z,100427.00
2022-12-22T07:38:19.361Z,100412.16
2022-12-22T07:40:51.870Z,100445.47
2022-12-22T07:43:20.901Z,100419.28
2022-12-22T07:45:48.981Z,100415.06
2022-12-22T07:48:34.390Z,100423.91
2022-12-22T07:51:05.501Z,100398.72
2022-12-22T07:53:34.963Z,100427.19
2022-12-22T07:56:05.085Z,100465.59
2022-12-22T07:58:35.067Z,100510.16
2022-12-22T08:01:03.387Z,100559.38
2022-12-22T08:03:31.934Z,100625.13
2022-12-22T08:05:59.855Z,100643.91
2022-12-22T08:08:27.918Z,100638.53
2022-12-22T08:10:56.301Z,100642.00
2022-12-22T08:13:24.676Z,100641.66
2022-12-22T08:15:54.283Z,100636.34
2022-12-22T08:18:22.359Z,100646.94
2022-12-22T08:20:51.504Z,100674.78
2022-12-22T08:23:20.186Z,100727.63
2022-12-22T08:25:52.330Z,100715.09
2022-12-22T08:28:20.593Z,100779.38
2022-12-22T08:30:49.348Z,100834.84
2022-12-22T08:33:18.915Z,100886.31
2022-12-22T08:35:47.549Z,101002.38
2022-12-22T08:38:16.184Z,101001.63
2022-12-22T08:40:45.436Z,101023.84
2022-12-22T08:43:13.868Z,100934.41
2022-12-22T08:45:43.305Z,100844.31
2022-12-22T08:48:12.018Z,100727.16
2022-12-22T08:50:41.455Z,100649.78
2022-12-22T08:53:23.720Z,100449.69
2022-12-22T08:55:58.340Z,100295.91
2022-12-22T08:58:26.482Z,100124.84
2022-12-22T09:00:54.794Z,99953.88
2022-12-22T09:03:22.927Z,99854.44
2022-12-22T09:05:52.479Z,99781.28
2022-12-22T09:08:20.650Z,99739.72
2022-12-22T09:10:48.689Z,99765.56
2022-12-22T09:13:17.719Z,99784.09
2022-12-22T09:15:45.905Z,99771.53
2022-12-22T09:18:13.983Z,99879.22
2022-12-22T09:20:42.113Z,99892.06
2022-12-22T09:23:11.628Z,99930.53
2022-12-22T09:25:39.907Z,99973.28
2022-12-22T09:28:08.794Z,99957.78
2022-12-22T09:30:36.900Z,99925.34
2022-12-22T09:33:04.912Z,99910.16
2022-12-22T09:35:32.945Z,99898.09
2022-12-22T09:38:01.058Z,99890.97
2022-12-22T09:40:30.538Z,99911.56
2022-12-22T09:42:59.617Z,99900.16
2022-12-22T09:45:27.591Z,99860.81
2022-12-22T09:47:56.738Z,99882.03
2022-12-22T09:50:27.360Z,99824.38
2022-12-22T09:52:59.911Z,99779.16
2022-12-22T09:55:39.878Z,99714.69
2022-12-22T09:58:25.777Z,99632.81
2022-12-22T10:01:01.697Z,99598.56
2022-12-22T10:03:37.216Z,99601.00
2022-12-22T10:06:12.247Z,99607.88
2022-12-22T10:08:42.009Z,99620.31
2022-12-22T10:11:16.830Z,99552.31
2022-12-22T10:13:45.663Z,99577.31
2022-12-22T10:16:23.249Z,99508.66
2022-12-22T10:19:00.536Z,99470.44
2022-12-22T10:21:29.985Z,99482.94
2022-12-22T10:23:58.031Z,99478.66
2022-12-22T10:26:31.836Z,99383.44
2022-12-22T10:29:04.843Z,99262.63
2022-12-22T10:31:34.263Z,99162.84
2022-12-22T10:34:12.946Z,99028.19
2022-12-22T10:36:44.023Z,98954.38
2022-12-22T10:39:12.344Z,98913.69
2022-12-22T10:41:46.188Z,98625.31
2022-12-22T10:44:22.541Z,98446.56
2022-12-22T10:46:52.480Z,98275.59
2022-12-22T10:49:22.941Z,98204.47
2022-12-22T10:51:54.129Z,98110.94
2022-12-22T10:54:30.630Z,97968.09
2022-12-22T10:57:21.819Z,97800.91
2022-12-22T10:59:51.739Z,97568.03
2022-12-22T11:02:33.250Z,97332.91
2022-12-22T11:05:09.837Z,97082.09
2022-12-22T11:07:39.887Z,96814.13
2022-12-22T11:10:24.372Z,96466.72
2022-12-22T11:13:31.000Z,96112.78
2022-12-22T11:16:03.809Z,95562.00
2022-12-22T11:18:47.883Z,95289.06
2022-12-22T11:21:24.641Z,95070.59
2022-12-22T11:24:07.084Z,94837.06
2022-12-22T11:26:45.076Z,94624.09
2022-12-22T11:29:29.574Z,94693.19
2022-12-22T11:32:11.932Z,94504.13
2022-12-22T11:34:57.036Z,94275.47
2022-12-22T11:37:35.082Z,94104.47
2022-12-22T11:40:16.046Z,94207.50
2022-12-22T11:42:58.559Z,94158.97
2022-12-22T11:45:43.339Z,94107.81
2022-12-22T11:48:33.179Z,94021.69
2022-12-22T11:51:13.318Z,93951.84
2022-12-22T11:54:10.353Z,93892.03
2022-12-22T11:56:41.924Z,93795.66
2022-12-22T11:59:26.770Z,93744.22
2022-12-22T12:02:18.286Z,93684.13
2022-12-22T12:05:22.096Z,93606.31
2022-12-22T12:07:53.855Z,93572.69
2022-12-22T12:10:26.476Z,93553.59
2022-12-22T12:13:03.453Z,93507.03
2022-12-22T12:15:34.187Z,93447.03
2022-12-22T12:18:28.519Z,93416.91
2022-12-22T12:21:09.425Z,93378.72
2022-12-22T12:23:53.162Z,93359.88
2022-12-22T12:26:26.134Z,93346.19
2022-12-22T12:29:05.418Z,93337.56
2022-12-22T12:31:38.558Z,93304.47
2022-12-22T12:34:13.841Z,93285.38
2022-12-22T12:36:46.285Z,93273.00
2022-12-22T12:39:19.973Z,93242.28
2022-12-22T12:41:57.522Z,93221.78
2022-12-22T12:44:29.805Z,93190.28
2022-12-22T12:47:07.344Z,93170.72
2022-12-22T12:49:59.626Z,93150.84
2022-12-22T12:53:17.823Z,93139.53
2022-12-22T12:55:54.909Z,93131.53
2022-12-22T12:58:53.065Z,93108.28
2022-12-22T13:02:01.723Z,93078.47
2022-12-22T13:05:11.771Z,93089.56
2022-12-22T13:08:14.594Z,93082.09
2022-12-22T13:10:46.929Z,93094.47
2022-12-22T13:13:47.258Z,93102.56
2022-12-22T13:16:40.014Z,93090.72
2022-12-22T13:19:24.586Z,93071.31
2022-12-22T13:21:57.823Z,93084.31
2022-12-22T13:24:31.228Z,93089.69
2022-12-22T13:27:06.958Z,93078.34
2022-12-22T13:29:45.085Z,93082.66
2022-12-22T13:32:22.978Z,93085.66
2022-12-22T13:35:29.814Z,93087.53
2022-12-22T13:37:49.204Z,93071.69
2022-12-22T13:40:22.459Z,93104.75
2022-12-22T13:42:52.899Z,93120.66
2022-12-22T13:45:37.297Z,93119.03
2022-12-22T13:48:11.771Z,93143.53
2022-12-22T13:50:45.169Z,93162.91
2022-12-22T13:53:49.420Z,93204.31
2022-12-22T13:56:13.763Z,93217.19
2022-12-22T13:58:45.409Z,93222.28
2022-12-22T14:01:20.009Z,93212.31
2022-12-22T14:04:00.084Z,93220.13
2022-12-22T14:06:32.195Z,93238.94
2022-12-22T14:09:20.592Z,93245.66
2022-12-22T14:11:53.233Z,93252.09
2022-12-22T14:14:26.041Z,93264.75
2022-12-22T14:16:57.043Z,93281.69
2022-12-22T14:19:26.304Z,93282.50
2022-12-22T14:22:03.412Z,93271.72
2022-12-22T14:24:38.318Z,93270.38
2022-12-22T14:27:17.238Z,93255.88
2022-12-22T14:29:46.672Z,93260.19
2022-12-22T14:32:35.642Z,93256.72
2022-12-22T14:35:03.955Z,93264.75
2022-12-22T14:37:33.161Z,93258.56
2022-12-22T14:40:01.495Z,93249.72
2022-12-22T14:42:32.318Z,93248.41
2022-12-22T14:45:00.830Z,93254.28
2022-12-22T14:47:28.872Z,93229.59
2022-12-22T14:49:59.524Z,93211.81
2022-12-22T14:52:37.643Z,93194.09
2022-12-22T14:55:07.828Z,93200.28
2022-12-22T14:57:40.667Z,93206.75
2022-12-22T15:00:28.176Z,93211.88
2022-12-22T15:02:58.802Z,93191.41
2022-12-22T15:05:28.509Z,93214.53
2022-12-22T15:08:08.562Z,93208.06
2022-12-22T15:10:44.933Z,93198.41
2022-12-22T15:13:20.197Z,93196.25
2022-12-22T15:15:48.915Z,93217.50
2022-12-22T15:18:17.132Z,93235.50
2022-12-22T15:20:46.250Z,93229.56
2022-12-22T15:23:17.487Z,93255.38
2022-12-22T15:25:46.395Z,93267.47
2022-12-22T15:28:15.929Z,93290.81
2022-12-22T15:30:46.752Z,93317.13
2022-12-22T15:33:17.028Z,93341.56
2022-12-22T15:35:48.343Z,93371.38
2022-12-22T15:38:19.129Z,93392.28
2022-12-22T15:40:47.871Z,93435.47
2022-12-22T15:43:55.116Z,93483.00
2022-12-22T15:46:07.866Z,93497.25
2022-12-22T15:48:40.643Z,93542.69
2022-12-22T15:51:16.722Z,93552.81
2022-12-22T15:53:45.595Z,93590.47
2022-12-22T15:56:19.310Z,93623.75
2022-12-22T15:58:49.216Z,93639.00
2022-12-22T16:01:17.557Z,93680.56
2022-12-22T16:03:45.647Z,93750.38
2022-12-22T16:06:20.618Z,93831.75
2022-12-22T16:08:54.836Z,93937.28
2022-12-22T16:11:24.663Z,94039.19
2022-12-22T16:13:54.605Z,94139.66
2022-12-22T16:16:25.112Z,94236.16
2022-12-22T16:18:54.161Z,94306.59
2022-12-22T16:21:28.609Z,94406.75
2022-12-22T16:23:57.650Z,94505.28
2022-12-22T16:26:26.850Z,94616.16
2022-12-22T16:28:58.308Z,94731.25
2022-12-22T16:31:26.947Z,94885.34
2022-12-22T16:33:55.338Z,95038.19
2022-12-22T16:36:23.603Z,95210.81
2022-12-22T16:38:51.819Z,95367.34
2022-12-22T16:41:23.439Z,95500.97
2022-12-22T16:46:40.791Z,95815.72
2022-12-22T16:49:11.045Z,96018.16
2022-12-22T16:51:47.391Z,96176.19
2022-12-22T16:54:17.702Z,96335.44
2022-12-22T16:56:47.280Z,96478.38
2022-12-22T16:59:16.810Z,96628.97
2022-12-22T17:01:52.083Z,96688.19
2022-12-22T17:04:22.830Z,96822.75
2022-12-22T17:06:53.066Z,96908.06
2022-12-22T17:09:27.407Z,96994.00
2022-12-22T17:11:57.083Z,97047.72
2022-12-22T17:14:31.142Z,97110.84
2022-12-22T17:17:03.713Z,97169.56
2022-12-22T17:19:32.092Z,97203.53
2022-12-22T17:22:04.394Z,97277.19
2022-12-22T17:24:32.708Z,97370.53
2022-12-22T17:27:06.520Z,97349.91
2022-12-22T17:29:38.946Z,97381.88
2022-12-22T17:32:14.405Z,97326.94
2022-12-22T17:34:45.082Z,97494.09
2022-12-22T17:37:27.462Z,97508.03
2022-12-22T17:40:01.792Z,97545.31
2022-12-22T17:42:33.663Z,97625.41
2022-12-22T17:45:01.920Z,97700.44
2022-12-22T17:47:42.185Z,97782.28
2022-12-22T17:50:14.504Z,97807.53
2022-12-22T17:52:44.140Z,97897.31
2022-12-22T17:55:49.905Z,97974.50
2022-12-22T17:58:14.914Z,98029.13
2022-12-22T18:00:44.070Z,98174.69
2022-12-22T18:03:17.423Z,98203.38
2022-12-22T18:05:49.121Z,98393.06
2022-12-22T18:08:22.386Z,98481.81
2022-12-22T18:10:53.681Z,98582.22
2022-12-22T18:13:25.218Z,98615.88
2022-12-22T18:15:58.944Z,98708.38
2022-12-22T18:18:28.999Z,98770.53
2022-12-22T18:21:07.292Z,98922.31
2022-12-22T18:23:38.250Z,98987.66
2022-12-22T18:26:08.475Z,99024.56
2022-12-22T18:28:37.256Z,99085.44
2022-12-22T18:31:09.566Z,99199.19
2022-12-22T18:33:42.658Z,99193.22
2022-12-22T18:36:18.130Z,99233.91
2022-12-22T18:38:48.490Z,99284.25
2022-12-22T18:41:24.349Z,99250.66
2022-12-22T18:43:57.689Z,99288.75
2022-12-22T18:46:26.416Z,99337.91
2022-12-22T18:49:01.796Z,99314.09
2022-12-22T18:51:33.440Z,99496.53
2022-12-22T18:54:03.768Z,99619.25
2022-12-22T18:56:35.553Z,99695.50
2022-12-22T18:59:03.831Z,99686.69
2022-12-22T19:01:34.234Z,99707.53
2022-12-22T19:04:03.917Z,99394.94
2022-12-22T19:06:31.840Z,99695.91
2022-12-22T19:08:59.965Z,99722.50
2022-12-22T19:11:33.025Z,99713.25
2022-12-22T19:14:01.175Z,99714.97
2022-12-22T19:16:29.353Z,99744.25
2022-12-22T19:18:59.996Z,99602.22
2022-12-22T19:21:29.579Z,99653.97
2022-12-22T19:23:57.726Z,99713.25
2022-12-22T19:26:27.920Z,99698.09
2022-12-22T19:28:59.593Z,99685.50
2022-12-22T19:31:30.437Z,99637.94
2022-12-22T19:34:00.409Z,99615.47
2022-12-22T19:36:34.522Z,99524.78
2022-12-22T19:39:07.719Z,99584.91
2022-12-22T19:41:44.080Z,99588.56
2022-12-22T19:44:25.047Z,99720.78
2022-12-22T19:46:54.861Z,99668.81
2022-12-22T19:49:30.569Z,99648.50
2022-12-22T19:52:04.701Z,99695.72
2022-12-22T19:54:36.078Z,99691.63
2022-12-22T19:57:07.524Z,99758.44
2022-12-22T19:59:40.015Z,99719.59
2022-12-22T20:02:25.541Z,99622.25
2022-12-22T20:04:54.859Z,99728.63
2022-12-22T20:07:26.596Z,99816.00
2022-12-22T20:09:54.661Z,99838.06
2022-12-22T20:12:27.433Z,99811.25
2022-12-22T20:14:55.740Z,99897.78
2022-12-22T20:17:23.927Z,99915.00
2022-12-22T20:19:52.251Z,99929.13
2022-12-22T20:22:22.682Z,99825.28
2022-12-22T20:24:54.458Z,99867.69
2022-12-22T20:27:25.616Z,99780.94
2022-12-22T20:29:54.392Z,99762.09
2022-12-22T20:32:27.609Z,99797.31
2022-12-22T20:34:56.487Z,99835.19
2022-12-22T20:37:25.294Z,99804.31
2022-12-22T20:39:54.797Z,99823.34
2022-12-22T20:42:24.885Z,99857.91
2022-12-22T20:45:02.190Z,99846.19
2022-12-22T20:47:33.334Z,99921.88
2022-12-22T20:50:01.415Z,100053.16
2022-12-22T20:52:30.100Z,100053.78
2022-12-22T20:54:59.648Z,100085.13
2022-12-22T20:57:28.628Z,99996.50
2022-12-22T20:59:57.110Z,99947.94
2022-12-22T21:02:28.691Z,99938.16
2022-12-22T21:05:00.531Z,99924.16
2022-12-22T21:07:29.568Z,100027.47
2022-12-22T21:09:57.645Z,100074.50
2022-12-22T21:12:27.047Z,100115.50
2022-12-22T21:14:55.126Z,100188.41
2022-12-22T21:17:23.363Z,100202.56
2022-12-22T21:19:51.373Z,100278.91
2022-12-22T21:22:19.441Z,100270.97
2022-12-22T21:24:47.500Z,100295.56
2022-12-22T21:27:20.092Z,100261.69
2022-12-22T21:29:49.607Z,100290.84
2022-12-22T21:32:17.763Z,100373.38
2022-12-22T21:34:45.802Z,100376.84
2022-12-22T21:37:18.330Z,100362.78
2022-12-22T21:39:46.874Z,100359.91
2022-12-22T21:42:16.378Z,100322.59
2022-12-22T21:44:45.793Z,100328.69
2022-12-22T21:47:18.255Z,100252.50
2022-12-22T21:49:46.184Z,100180.50
2022-12-22T21:52:14.344Z,100058.88
2022-12-22T21:54:42.211Z,99984.91
2022-12-22T21:57:15.020Z,99853.28
2022-12-22T21:59:42.957Z,99776.41
2022-12-22T22:02:17.100Z,99621.69
2022-12-22T22:04:53.786Z,99508.84
2022-12-22T22:07:22.806Z,99370.91
2022-12-22T22:09:50.778Z,99224.41
2022-12-22T22:12:33.705Z,99058.16
2022-12-22T22:15:02.054Z,98973.78
2022-12-22T22:17:31.721Z,98893.91
2022-12-22T22:19:59.775Z,98758.03
2022-12-22T22:22:27.772Z,98626.16
2022-12-22T22:24:55.755Z,98458.31
2022-12-22T22:27:23.731Z,98291.50
2022-12-22T22:29:51.781Z,98220.28
2022-12-22T22:32:20.669Z,98119.31
2022-12-22T22:34:53.643Z,97988.00
2022-12-22T22:37:22.170Z,97974.50
2022-12-22T22:39:50.818Z,97917.84
2022-12-22T22:42:18.754Z,97822.50
2022-12-22T22:44:46.803Z,97799.25
2022-12-22T22:50:19.049Z,97651.81
2022-12-22T22:52:47.307Z,97648.63
2022-12-22T22:55:15.796Z,97599.66
2022-12-22T22:57:44.056Z,97545.81
2022-12-22T23:00:14.306Z,97502.06
2022-12-22T23:02:42.872Z,97445.16
2022-12-22T23:05:16.962Z,97383.63
2022-12-22T23:07:50.056Z,97357.66
2022-12-22T23:10:18.116Z,97313.59
2022-12-22T23:12:46.227Z,97281.78
2022-12-22T23:15:14.249Z,97252.88
2022-12-22T23:17:42.167Z,97267.63
2022-12-22T23:20:10.719Z,97261.59
2022-12-22T23:22:38.814Z,97245.56
2022-12-22T23:25:08.877Z,97201.22
2022-12-22T23:27:36.947Z,97212.59
2022-12-22T23:30:05.462Z,97165.63
2022-12-22T23:32:33.402Z,97113.81
2022-12-22T23:35:01.232Z,97042.91
2022-12-22T23:37:29.063Z,96983.44
2022-12-22T23:40:10.780Z,96963.41
2022-12-22T23:42:50.474Z,96913.56
2022-12-22T23:45:21.244Z,96873.66
2022-12-22T23:47:49.243Z,96867.53
2022-12-22T23:50:17.548Z,96830.63
2022-12-22T23:52:49.210Z,96821.91
2022-12-22T23:55:17.743Z,96765.78
2022-12-22T23:57:47.257Z,96767.34
